sensor_id;sensor_type;location;lat;lon;timestamp;temperature;humidity
46319;DHT22;32042;50.916;2.926;2023-05-15T00:00:02;10.00;99.90
46319;DHT22;32042;50.916;2.926;2023-05-15T00:02:28;10.00;99.90
46319;DHT22;32042;50.916;2.926;2023-05-15T00:04:54;10.10;99.90
46319;DHT22;32042;50.916;2.926;2023-05-15T00:07:20;10.10;99.90
46319;DHT22;32042;50.916;2.926;2023-05-15T00:09:45;10.10;99.90
46319;DHT22;32042;50.916;2.926;2023-05-15T00:12:11;10.10;99.90
46319;DHT22;32042;50.916;2.926;2023-05-15T00:14:38;10.10;99.90
46319;DHT22;32042;50.916;2.926;2023-05-15T00:17:04;10.10;99.90
46319;DHT22;32042;50.916;2.926;2023-05-15T00:19:29;10.20;99.90
46319;DHT22;32042;50.916;2.926;2023-05-15T00:21:55;10.10;99.90
46319;DHT22;32042;50.916;2.926;2023-05-15T00:24:21;10.10;99.90
46319;DHT22;32042;50.916;2.926;2023-05-15T00:26:47;10.10;99.90
46319;DHT22;32042;50.916;2.926;2023-05-15T00:29:12;10.00;99.90
46319;DHT22;32042;50.916;2.926;2023-05-15T00:31:38;10.80;99.90
46319;DHT22;32042;50.916;2.926;2023-05-15T00:34:04;10.00;99.90
46319;DHT22;32042;50.916;2.926;2023-05-15T00:36:30;10.00;99.90
46319;DHT22;32042;50.916;2.926;2023-05-15T00:38:56;10.00;99.90
46319;DHT22;32042;50.916;2.926;2023-05-15T00:41:22;10.10;99.90
46319;DHT22;32042;50.916;2.926;2023-05-15T00:43:49;10.00;99.90
46319;DHT22;32042;50.916;2.926;2023-05-15T00:46:19;10.00;99.90
46319;DHT22;32042;50.916;2.926;2023-05-15T00:48:45;10.00;99.90
46319;DHT22;32042;50.916;2.926;2023-05-15T00:51:12;10.00;99.90
46319;DHT22;32042;50.916;2.926;2023-05-15T00:53:38;10.00;99.90
46319;DHT22;32042;50.916;2.926;2023-05-15T00:56:05;10.10;99.90
46319;DHT22;32042;50.916;2.926;2023-05-15T00:58:32;10.10;99.90
46319;DHT22;32042;50.916;2.926;2023-05-15T01:00:58;10.10;99.90
46319;DHT22;32042;50.916;2.926;2023-05-15T01:03:24;10.20;99.90
46319;DHT22;32042;50.916;2.926;2023-05-15T01:05:50;10.20;99.90
46319;DHT22;32042;50.916;2.926;2023-05-15T01:08:26;10.10;99.90
46319;DHT22;32042;50.916;2.926;2023-05-15T01:10:58;10.10;99.90
46319;DHT22;32042;50.916;2.926;2023-05-15T01:13:24;10.10;99.90
46319;DHT22;32042;50.916;2.926;2023-05-15T01:15:50;10.10;99.90
46319;DHT22;32042;50.916;2.926;2023-05-15T01:18:16;10.10;99.90
46319;DHT22;32042;50.916;2.926;2023-05-15T01:26:29;10.10;99.90
46319;DHT22;32042;50.916;2.926;2023-05-15T01:29:03;10.10;99.90
46319;DHT22;32042;50.916;2.926;2023-05-15T01:31:30;10.10;99.90
46319;DHT22;32042;50.916;2.926;2023-05-15T01:34:01;10.10;99.90
46319;DHT22;32042;50.916;2.926;2023-05-15T01:36:46;10.20;99.90
46319;DHT22;32042;50.916;2.926;2023-05-15T01:39:16;10.20;99.90
46319;DHT22;32042;50.916;2.926;2023-05-15T01:41:53;10.20;99.90
46319;DHT22;32042;50.916;2.926;2023-05-15T01:44:29;10.20;99.90
46319;DHT22;32042;50.916;2.926;2023-05-15T01:47:00;10.20;99.90
46319;DHT22;32042;50.916;2.926;2023-05-15T01:49:27;10.20;99.90
46319;DHT22;32042;50.916;2.926;2023-05-15T01:52:07;10.10;99.90
46319;DHT22;32042;50.916;2.926;2023-05-15T01:54:35;10.20;99.90
46319;DHT22;32042;50.916;2.926;2023-05-15T01:57:02;10.10;99.90
46319;DHT22;32042;50.916;2.926;2023-05-15T01:59:28;10.20;99.90
46319;DHT22;32042;50.916;2.926;2023-05-15T02:01:56;10.20;99.90
46319;DHT22;32042;50.916;2.926;2023-05-15T02:04:23;10.20;99.90
46319;DHT22;32042;50.916;2.926;2023-05-15T02:06:50;10.30;99.90
46319;DHT22;32042;50.916;2.926;2023-05-15T02:09:19;10.30;99.90
46319;DHT22;32042;50.916;2.926;2023-05-15T02:11:46;10.30;99.90
46319;DHT22;32042;50.916;2.926;2023-05-15T02:14:12;10.30;99.90
46319;DHT22;32042;50.916;2.926;2023-05-15T02:16:39;10.20;99.90
46319;DHT22;32042;50.916;2.926;2023-05-15T02:19:05;10.20;99.90
46319;DHT22;32042;50.916;2.926;2023-05-15T02:21:31;10.20;99.90
46319;DHT22;32042;50.916;2.926;2023-05-15T02:23:56;10.20;99.90
46319;DHT22;32042;50.916;2.926;2023-05-15T02:26:29;10.30;99.90
46319;DHT22;32042;50.916;2.926;2023-05-15T02:29:18;10.20;99.90
46319;DHT22;32042;50.916;2.926;2023-05-15T02:32:03;10.20;99.90
46319;DHT22;32042;50.916;2.926;2023-05-15T02:34:55;10.20;99.90
46319;DHT22;32042;50.916;2.926;2023-05-15T02:37:31;10.20;99.90
46319;DHT22;32042;50.916;2.926;2023-05-15T02:40:00;10.10;99.90
46319;DHT22;32042;50.916;2.926;2023-05-15T02:42:32;10.10;99.90
46319;DHT22;32042;50.916;2.926;2023-05-15T02:45:00;10.00;99.90
46319;DHT22;32042;50.916;2.926;2023-05-15T02:47:28;10.00;99.90
46319;DHT22;32042;50.916;2.926;2023-05-15T02:49:54;10.00;99.90
46319;DHT22;32042;50.916;2.926;2023-05-15T02:52:24;10.00;99.90
46319;DHT22;32042;50.916;2.926;2023-05-15T02:54:50;9.90;99.90
46319;DHT22;32042;50.916;2.926;2023-05-15T02:57:16;9.90;99.90
46319;DHT22;32042;50.916;2.926;2023-05-15T02:59:42;9.90;99.90
46319;DHT22;32042;50.916;2.926;2023-05-15T03:02:08;9.80;99.90
46319;DHT22;32042;50.916;2.926;2023-05-15T03:04:33;9.70;99.90
46319;DHT22;32042;50.916;2.926;2023-05-15T03:06:59;9.60;99.90
46319;DHT22;32042;50.916;2.926;2023-05-15T03:09:25;9.60;99.90
46319;DHT22;32042;50.916;2.926;2023-05-15T03:11:51;9.60;99.90
46319;DHT22;32042;50.916;2.926;2023-05-15T03:14:16;9.60;99.90
46319;DHT22;32042;50.916;2.926;2023-05-15T03:16:42;9.60;99.90
46319;DHT22;32042;50.916;2.926;2023-05-15T03:19:08;9.60;99.90
46319;DHT22;32042;50.916;2.926;2023-05-15T03:21:33;9.60;99.90
46319;DHT22;32042;50.916;2.926;2023-05-15T03:24:00;9.60;99.90
46319;DHT22;32042;50.916;2.926;2023-05-15T03:26:26;9.60;99.90
46319;DHT22;32042;50.916;2.926;2023-05-15T03:28:52;9.60;99.90
46319;DHT22;32042;50.916;2.926;2023-05-15T03:31:18;9.70;99.90
46319;DHT22;32042;50.916;2.926;2023-05-15T03:33:43;9.70;99.90
46319;DHT22;32042;50.916;2.926;2023-05-15T03:36:14;9.70;99.90
46319;DHT22;32042;50.916;2.926;2023-05-15T03:38:40;9.60;99.90
46319;DHT22;32042;50.916;2.926;2023-05-15T03:41:05;9.60;99.90
46319;DHT22;32042;50.916;2.926;2023-05-15T03:43:31;9.60;99.90
46319;DHT22;32042;50.916;2.926;2023-05-15T03:45:58;9.60;99.90
46319;DHT22;32042;50.916;2.926;2023-05-15T03:48:23;9.60;99.90
46319;DHT22;32042;50.916;2.926;2023-05-15T03:50:50;9.60;99.90
46319;DHT22;32042;50.916;2.926;2023-05-15T03:53:16;9.70;99.90
46319;DHT22;32042;50.916;2.926;2023-05-15T03:55:42;9.70;99.90
46319;DHT22;32042;50.916;2.926;2023-05-15T03:58:08;9.70;99.90
46319;DHT22;32042;50.916;2.926;2023-05-15T04:00:33;9.70;99.90
46319;DHT22;32042;50.916;2.926;2023-05-15T04:03:00;9.70;99.90
46319;DHT22;32042;50.916;2.926;2023-05-15T04:05:25;9.70;99.90
46319;DHT22;32042;50.916;2.926;2023-05-15T04:07:51;9.80;99.90
46319;DHT22;32042;50.916;2.926;2023-05-15T04:10:18;9.80;99.90
46319;DHT22;32042;50.916;2.926;2023-05-15T04:12:44;9.80;99.90
46319;DHT22;32042;50.916;2.926;2023-05-15T04:15:20;9.80;99.90
46319;DHT22;32042;50.916;2.926;2023-05-15T04:17:48;9.80;99.90
46319;DHT22;32042;50.916;2.926;2023-05-15T04:20:15;9.80;99.90
46319;DHT22;32042;50.916;2.926;2023-05-15T04:22:42;9.80;99.90
46319;DHT22;32042;50.916;2.926;2023-05-15T04:25:09;9.80;99.90
46319;DHT22;32042;50.916;2.926;2023-05-15T04:27:36;9.80;99.90
46319;DHT22;32042;50.916;2.926;2023-05-15T04:30:02;9.80;99.90
46319;DHT22;32042;50.916;2.926;2023-05-15T04:32:29;9.80;99.90
46319;DHT22;32042;50.916;2.926;2023-05-15T04:34:55;9.80;99.90
46319;DHT22;32042;50.916;2.926;2023-05-15T04:37:20;9.80;99.90
46319;DHT22;32042;50.916;2.926;2023-05-15T04:39:46;9.90;99.90
46319;DHT22;32042;50.916;2.926;2023-05-15T04:42:12;9.80;99.90
46319;DHT22;32042;50.916;2.926;2023-05-15T04:44:38;9.90;99.90
46319;DHT22;32042;50.916;2.926;2023-05-15T04:47:04;9.90;99.90
46319;DHT22;32042;50.916;2.926;2023-05-15T04:49:29;9.90;99.90
46319;DHT22;32042;50.916;2.926;2023-05-15T04:51:55;10.00;99.90
46319;DHT22;32042;50.916;2.926;2023-05-15T04:54:21;10.00;99.90
46319;DHT22;32042;50.916;2.926;2023-05-15T04:56:46;10.10;99.90
46319;DHT22;32042;50.916;2.926;2023-05-15T04:59:12;10.10;99.90
46319;DHT22;32042;50.916;2.926;2023-05-15T05:01:38;10.20;99.90
46319;DHT22;32042;50.916;2.926;2023-05-15T05:04:04;10.20;99.90
46319;DHT22;32042;50.916;2.926;2023-05-15T05:06:30;10.10;99.90
46319;DHT22;32042;50.916;2.926;2023-05-15T05:08:56;10.20;99.90
46319;DHT22;32042;50.916;2.926;2023-05-15T05:11:21;10.20;99.90
46319;DHT22;32042;50.916;2.926;2023-05-15T05:13:48;10.30;99.90
46319;DHT22;32042;50.916;2.926;2023-05-15T05:16:13;10.20;99.90
46319;DHT22;32042;50.916;2.926;2023-05-15T05:18:39;10.30;99.90
46319;DHT22;32042;50.916;2.926;2023-05-15T05:21:05;10.30;99.90
46319;DHT22;32042;50.916;2.926;2023-05-15T05:23:31;10.40;99.90
46319;DHT22;32042;50.916;2.926;2023-05-15T05:25:58;10.40;99.90
46319;DHT22;32042;50.916;2.926;2023-05-15T05:28:24;10.40;99.90
46319;DHT22;32042;50.916;2.926;2023-05-15T05:30:50;10.40;99.90
46319;DHT22;32042;50.916;2.926;2023-05-15T05:33:16;10.40;99.90
46319;DHT22;32042;50.916;2.926;2023-05-15T05:35:41;10.50;99.90
46319;DHT22;32042;50.916;2.926;2023-05-15T05:38:07;10.50;99.90
46319;DHT22;32042;50.916;2.926;2023-05-15T05:40:33;10.50;99.90
46319;DHT22;32042;50.916;2.926;2023-05-15T05:43:00;10.60;99.90
46319;DHT22;32042;50.916;2.926;2023-05-15T05:45:26;10.60;99.90
46319;DHT22;32042;50.916;2.926;2023-05-15T05:47:51;10.60;99.90
46319;DHT22;32042;50.916;2.926;2023-05-15T05:50:17;10.70;99.90
46319;DHT22;32042;50.916;2.926;2023-05-15T05:52:43;10.70;99.90
46319;DHT22;32042;50.916;2.926;2023-05-15T05:55:09;10.80;99.90
46319;DHT22;32042;50.916;2.926;2023-05-15T05:57:35;10.80;99.90
46319;DHT22;32042;50.916;2.926;2023-05-15T06:00:00;10.90;99.90
46319;DHT22;32042;50.916;2.926;2023-05-15T06:02:26;10.90;99.90
46319;DHT22;32042;50.916;2.926;2023-05-15T06:04:52;11.00;99.90
46319;DHT22;32042;50.916;2.926;2023-05-15T06:07:18;11.00;99.90
46319;DHT22;32042;50.916;2.926;2023-05-15T06:09:44;11.10;99.90
46319;DHT22;32042;50.916;2.926;2023-05-15T06:12:11;11.10;99.90
46319;DHT22;32042;50.916;2.926;2023-05-15T06:14:36;11.10;99.90
46319;DHT22;32042;50.916;2.926;2023-05-15T06:17:03;11.10;99.90
46319;DHT22;32042;50.916;2.926;2023-05-15T06:19:29;11.10;99.90
46319;DHT22;32042;50.916;2.926;2023-05-15T06:21:54;11.10;99.90
46319;DHT22;32042;50.916;2.926;2023-05-15T06:24:20;11.20;99.90
46319;DHT22;32042;50.916;2.926;2023-05-15T06:26:46;11.30;99.90
46319;DHT22;32042;50.916;2.926;2023-05-15T06:29:12;11.30;99.90
46319;DHT22;32042;50.916;2.926;2023-05-15T06:31:37;11.30;99.90
46319;DHT22;32042;50.916;2.926;2023-05-15T06:34:03;11.20;99.90
46319;DHT22;32042;50.916;2.926;2023-05-15T06:36:29;11.20;99.90
46319;DHT22;32042;50.916;2.926;2023-05-15T06:38:55;11.30;99.90
46319;DHT22;32042;50.916;2.926;2023-05-15T06:41:20;11.30;99.90
46319;DHT22;32042;50.916;2.926;2023-05-15T06:43:46;11.30;99.90
46319;DHT22;32042;50.916;2.926;2023-05-15T06:46:12;11.40;99.90
46319;DHT22;32042;50.916;2.926;2023-05-15T06:48:40;11.40;99.90
46319;DHT22;32042;50.916;2.926;2023-05-15T06:51:06;11.30;99.90
46319;DHT22;32042;50.916;2.926;2023-05-15T06:53:32;11.40;99.90
46319;DHT22;32042;50.916;2.926;2023-05-15T06:55:58;11.40;99.90
46319;DHT22;32042;50.916;2.926;2023-05-15T06:58:23;11.50;99.90
46319;DHT22;32042;50.916;2.926;2023-05-15T07:00:49;11.50;99.90
46319;DHT22;32042;50.916;2.926;2023-05-15T07:03:15;11.50;99.90
46319;DHT22;32042;50.916;2.926;2023-05-15T07:05:42;11.60;99.90
46319;DHT22;32042;50.916;2.926;2023-05-15T07:08:08;11.60;99.90
46319;DHT22;32042;50.916;2.926;2023-05-15T07:10:33;11.60;99.90
46319;DHT22;32042;50.916;2.926;2023-05-15T07:12:59;11.70;99.90
46319;DHT22;32042;50.916;2.926;2023-05-15T07:15:25;11.70;99.90
46319;DHT22;32042;50.916;2.926;2023-05-15T07:17:50;11.70;99.90
46319;DHT22;32042;50.916;2.926;2023-05-15T07:20:16;11.80;99.90
46319;DHT22;32042;50.916;2.926;2023-05-15T07:22:42;11.80;99.90
46319;DHT22;32042;50.916;2.926;2023-05-15T07:25:08;11.80;99.90
46319;DHT22;32042;50.916;2.926;2023-05-15T07:27:34;12.00;99.90
46319;DHT22;32042;50.916;2.926;2023-05-15T07:30:01;12.00;99.90
46319;DHT22;32042;50.916;2.926;2023-05-15T07:32:28;12.10;99.90
46319;DHT22;32042;50.916;2.926;2023-05-15T07:34:55;12.10;99.90
46319;DHT22;32042;50.916;2.926;2023-05-15T07:37:21;12.20;99.90
46319;DHT22;32042;50.916;2.926;2023-05-15T07:39:48;12.20;99.90
46319;DHT22;32042;50.916;2.926;2023-05-15T07:42:13;12.30;99.90
46319;DHT22;32042;50.916;2.926;2023-05-15T07:44:39;12.40;99.90
46319;DHT22;32042;50.916;2.926;2023-05-15T07:47:05;12.40;99.90
46319;DHT22;32042;50.916;2.926;2023-05-15T07:49:31;12.40;99.90
46319;DHT22;32042;50.916;2.926;2023-05-15T07:51:56;12.50;99.90
46319;DHT22;32042;50.916;2.926;2023-05-15T07:54:22;12.50;99.90
46319;DHT22;32042;50.916;2.926;2023-05-15T07:56:48;12.60;99.90
46319;DHT22;32042;50.916;2.926;2023-05-15T07:59:14;12.60;99.90
46319;DHT22;32042;50.916;2.926;2023-05-15T08:01:39;12.70;99.90
46319;DHT22;32042;50.916;2.926;2023-05-15T08:04:07;12.70;99.90
46319;DHT22;32042;50.916;2.926;2023-05-15T08:06:34;12.70;99.90
46319;DHT22;32042;50.916;2.926;2023-05-15T08:09:01;12.80;99.90
46319;DHT22;32042;50.916;2.926;2023-05-15T08:11:27;12.90;99.90
46319;DHT22;32042;50.916;2.926;2023-05-15T08:13:53;13.00;99.90
46319;DHT22;32042;50.916;2.926;2023-05-15T08:16:18;12.90;99.90
46319;DHT22;32042;50.916;2.926;2023-05-15T08:18:44;12.90;99.90
46319;DHT22;32042;50.916;2.926;2023-05-15T08:21:10;13.00;99.90
46319;DHT22;32042;50.916;2.926;2023-05-15T08:23:36;13.00;99.90
46319;DHT22;32042;50.916;2.926;2023-05-15T08:26:01;13.00;99.90
46319;DHT22;32042;50.916;2.926;2023-05-15T08:28:27;13.00;99.90
46319;DHT22;32042;50.916;2.926;2023-05-15T08:30:53;13.00;99.90
46319;DHT22;32042;50.916;2.926;2023-05-15T08:33:18;12.90;99.90
46319;DHT22;32042;50.916;2.926;2023-05-15T08:35:44;12.90;99.90
46319;DHT22;32042;50.916;2.926;2023-05-15T08:38:10;12.90;99.90
46319;DHT22;32042;50.916;2.926;2023-05-15T08:40:36;12.90;99.90
46319;DHT22;32042;50.916;2.926;2023-05-15T08:43:20;12.90;99.90
46319;DHT22;32042;50.916;2.926;2023-05-15T08:45:48;12.90;99.90
46319;DHT22;32042;50.916;2.926;2023-05-15T08:48:16;12.80;99.90
46319;DHT22;32042;50.916;2.926;2023-05-15T08:50:45;12.90;99.90
46319;DHT22;32042;50.916;2.926;2023-05-15T08:53:12;12.90;99.90
46319;DHT22;32042;50.916;2.926;2023-05-15T08:55:39;12.90;99.90
46319;DHT22;32042;50.916;2.926;2023-05-15T08:58:05;13.00;99.90
46319;DHT22;32042;50.916;2.926;2023-05-15T09:00:31;13.00;99.90
46319;DHT22;32042;50.916;2.926;2023-05-15T09:03:00;13.00;99.90
46319;DHT22;32042;50.916;2.926;2023-05-15T09:05:28;13.10;99.90
46319;DHT22;32042;50.916;2.926;2023-05-15T09:07:54;13.00;99.90
46319;DHT22;32042;50.916;2.926;2023-05-15T09:10:22;13.10;99.90
46319;DHT22;32042;50.916;2.926;2023-05-15T09:12:50;13.10;99.90
46319;DHT22;32042;50.916;2.926;2023-05-15T09:15:18;13.10;99.90
46319;DHT22;32042;50.916;2.926;2023-05-15T09:17:46;13.10;99.90
46319;DHT22;32042;50.916;2.926;2023-05-15T09:20:36;13.10;99.90
46319;DHT22;32042;50.916;2.926;2023-05-15T09:23:03;13.00;99.90
46319;DHT22;32042;50.916;2.926;2023-05-15T09:25:34;12.90;99.90
46319;DHT22;32042;50.916;2.926;2023-05-15T09:28:02;12.90;99.90
46319;DHT22;32042;50.916;2.926;2023-05-15T09:30:28;12.90;99.90
46319;DHT22;32042;50.916;2.926;2023-05-15T09:32:59;12.90;99.90
46319;DHT22;32042;50.916;2.926;2023-05-15T09:35:36;12.90;99.90
46319;DHT22;32042;50.916;2.926;2023-05-15T09:38:09;12.80;99.90
46319;DHT22;32042;50.916;2.926;2023-05-15T09:40:35;12.80;99.90
46319;DHT22;32042;50.916;2.926;2023-05-15T09:43:00;12.80;99.90
46319;DHT22;32042;50.916;2.926;2023-05-15T09:45:26;12.80;99.90
46319;DHT22;32042;50.916;2.926;2023-05-15T09:47:54;12.80;99.90
46319;DHT22;32042;50.916;2.926;2023-05-15T09:50:23;12.80;99.90
46319;DHT22;32042;50.916;2.926;2023-05-15T09:52:50;12.80;99.90
46319;DHT22;32042;50.916;2.926;2023-05-15T09:55:19;12.80;99.90
46319;DHT22;32042;50.916;2.926;2023-05-15T09:58:08;12.70;99.90
46319;DHT22;32042;50.916;2.926;2023-05-15T10:00:36;12.60;99.90
46319;DHT22;32042;50.916;2.926;2023-05-15T10:03:03;12.40;99.90
46319;DHT22;32042;50.916;2.926;2023-05-15T10:05:30;12.30;99.90
46319;DHT22;32042;50.916;2.926;2023-05-15T10:07:57;12.00;99.90
46319;DHT22;32042;50.916;2.926;2023-05-15T10:10:24;11.90;99.90
46319;DHT22;32042;50.916;2.926;2023-05-15T10:12:50;11.90;99.90
46319;DHT22;32042;50.916;2.926;2023-05-15T10:15:18;11.90;99.90
46319;DHT22;32042;50.916;2.926;2023-05-15T10:17:46;12.00;99.90
46319;DHT22;32042;50.916;2.926;2023-05-15T10:20:12;12.00;99.90
46319;DHT22;32042;50.916;2.926;2023-05-15T10:22:40;12.00;99.90
46319;DHT22;32042;50.916;2.926;2023-05-15T10:27:50;11.90;99.90
46319;DHT22;32042;50.916;2.926;2023-05-15T10:30:16;11.90;99.90
46319;DHT22;32042;50.916;2.926;2023-05-15T10:32:44;11.80;99.90
46319;DHT22;32042;50.916;2.926;2023-05-15T10:35:11;11.80;99.90
46319;DHT22;32042;50.916;2.926;2023-05-15T10:37:40;11.70;99.90
46319;DHT22;32042;50.916;2.926;2023-05-15T10:40:08;11.70;99.90
46319;DHT22;32042;50.916;2.926;2023-05-15T10:42:36;11.70;99.90
46319;DHT22;32042;50.916;2.926;2023-05-15T10:45:02;11.70;99.90
46319;DHT22;32042;50.916;2.926;2023-05-15T10:47:29;11.70;99.90
46319;DHT22;32042;50.916;2.926;2023-05-15T10:49:57;11.70;99.90
46319;DHT22;32042;50.916;2.926;2023-05-15T10:52:23;11.70;99.90
46319;DHT22;32042;50.916;2.926;2023-05-15T10:54:51;11.70;99.90
46319;DHT22;32042;50.916;2.926;2023-05-15T10:57:17;11.70;99.90
46319;DHT22;32042;50.916;2.926;2023-05-15T10:59:43;11.70;99.90
46319;DHT22;32042;50.916;2.926;2023-05-15T11:02:26;11.70;99.90
46319;DHT22;32042;50.916;2.926;2023-05-15T11:04:55;11.70;99.90
46319;DHT22;32042;50.916;2.926;2023-05-15T11:07:22;11.70;99.90
46319;DHT22;32042;50.916;2.926;2023-05-15T11:09:49;11.60;99.90
46319;DHT22;32042;50.916;2.926;2023-05-15T11:12:15;11.60;99.90
46319;DHT22;32042;50.916;2.926;2023-05-15T11:17:31;11.50;99.90
46319;DHT22;32042;50.916;2.926;2023-05-15T11:19:59;11.50;99.90
46319;DHT22;32042;50.916;2.926;2023-05-15T11:22:26;11.50;99.90
46319;DHT22;32042;50.916;2.926;2023-05-15T11:25:06;11.50;99.90
46319;DHT22;32042;50.916;2.926;2023-05-15T11:27:43;11.40;99.90
46319;DHT22;32042;50.916;2.926;2023-05-15T11:32:48;11.40;99.90
46319;DHT22;32042;50.916;2.926;2023-05-15T11:35:38;11.40;99.90
46319;DHT22;32042;50.916;2.926;2023-05-15T11:40:46;11.50;99.90
46319;DHT22;32042;50.916;2.926;2023-05-15T11:43:25;11.50;99.90
46319;DHT22;32042;50.916;2.926;2023-05-15T11:48:34;11.60;99.90
46319;DHT22;32042;50.916;2.926;2023-05-15T11:51:02;11.70;99.90
46319;DHT22;32042;50.916;2.926;2023-05-15T11:53:29;11.60;99.90
46319;DHT22;32042;50.916;2.926;2023-05-15T11:55:55;11.50;99.90
46319;DHT22;32042;50.916;2.926;2023-05-15T11:58:23;11.60;99.90
46319;DHT22;32042;50.916;2.926;2023-05-15T12:00:50;11.60;99.90
46319;DHT22;32042;50.916;2.926;2023-05-15T12:03:32;11.70;99.90
46319;DHT22;32042;50.916;2.926;2023-05-15T12:06:01;11.50;99.90
46319;DHT22;32042;50.916;2.926;2023-05-15T12:08:31;11.50;99.90
46319;DHT22;32042;50.916;2.926;2023-05-15T12:11:01;11.40;99.90
46319;DHT22;32042;50.916;2.926;2023-05-15T12:13:28;11.40;99.90
46319;DHT22;32042;50.916;2.926;2023-05-15T12:15:55;11.20;99.90
46319;DHT22;32042;50.916;2.926;2023-05-15T12:18:21;11.10;99.90
46319;DHT22;32042;50.916;2.926;2023-05-15T12:20:47;11.20;99.90
46319;DHT22;32042;50.916;2.926;2023-05-15T12:23:15;11.10;99.90
46319;DHT22;32042;50.916;2.926;2023-05-15T12:25:43;11.10;99.90
46319;DHT22;32042;50.916;2.926;2023-05-15T12:28:10;11.00;99.90
46319;DHT22;32042;50.916;2.926;2023-05-15T12:30:37;11.00;99.90
46319;DHT22;32042;50.916;2.926;2023-05-15T12:33:05;11.10;99.90
46319;DHT22;32042;50.916;2.926;2023-05-15T12:35:35;11.10;99.90
46319;DHT22;32042;50.916;2.926;2023-05-15T12:38:05;11.10;99.90
46319;DHT22;32042;50.916;2.926;2023-05-15T12:40:35;11.10;99.90
46319;DHT22;32042;50.916;2.926;2023-05-15T12:43:08;11.20;99.90
46319;DHT22;32042;50.916;2.926;2023-05-15T12:45:37;11.20;99.90
46319;DHT22;32042;50.916;2.926;2023-05-15T12:48:04;11.30;99.90
46319;DHT22;32042;50.916;2.926;2023-05-15T12:50:32;11.30;99.90
46319;DHT22;32042;50.916;2.926;2023-05-15T12:53:00;11.30;99.90
46319;DHT22;32042;50.916;2.926;2023-05-15T12:55:31;11.30;99.90
46319;DHT22;32042;50.916;2.926;2023-05-15T12:58:08;11.30;99.90
46319;DHT22;32042;50.916;2.926;2023-05-15T13:00:35;11.40;99.90
46319;DHT22;32042;50.916;2.926;2023-05-15T13:03:02;11.40;99.90
46319;DHT22;32042;50.916;2.926;2023-05-15T13:05:31;11.30;99.90
46319;DHT22;32042;50.916;2.926;2023-05-15T13:07:59;11.40;99.90
46319;DHT22;32042;50.916;2.926;2023-05-15T13:10:25;11.40;99.90
46319;DHT22;32042;50.916;2.926;2023-05-15T13:12:53;11.40;99.90
46319;DHT22;32042;50.916;2.926;2023-05-15T13:15:32;11.40;99.90
46319;DHT22;32042;50.916;2.926;2023-05-15T13:18:09;11.30;99.90
46319;DHT22;32042;50.916;2.926;2023-05-15T13:20:41;11.40;99.90
46319;DHT22;32042;50.916;2.926;2023-05-15T13:23:08;11.40;99.90
46319;DHT22;32042;50.916;2.926;2023-05-15T13:25:35;11.40;99.90
46319;DHT22;32042;50.916;2.926;2023-05-15T13:28:04;11.30;99.90
46319;DHT22;32042;50.916;2.926;2023-05-15T13:30:34;11.30;99.90
46319;DHT22;32042;50.916;2.926;2023-05-15T13:33:00;11.40;99.90
46319;DHT22;32042;50.916;2.926;2023-05-15T13:35:27;11.40;99.90
46319;DHT22;32042;50.916;2.926;2023-05-15T13:37:53;11.40;99.90
46319;DHT22;32042;50.916;2.926;2023-05-15T13:40:18;11.40;99.90
46319;DHT22;32042;50.916;2.926;2023-05-15T13:42:45;11.40;99.90
46319;DHT22;32042;50.916;2.926;2023-05-15T13:45:13;11.40;99.90
46319;DHT22;32042;50.916;2.926;2023-05-15T13:47:39;11.40;99.90
46319;DHT22;32042;50.916;2.926;2023-05-15T13:50:10;11.40;99.90
46319;DHT22;32042;50.916;2.926;2023-05-15T13:52:36;11.50;99.90
46319;DHT22;32042;50.916;2.926;2023-05-15T13:55:02;11.50;99.90
46319;DHT22;32042;50.916;2.926;2023-05-15T13:57:31;11.50;99.90
46319;DHT22;32042;50.916;2.926;2023-05-15T13:59:57;11.50;99.90
46319;DHT22;32042;50.916;2.926;2023-05-15T14:02:23;11.60;99.90
46319;DHT22;32042;50.916;2.926;2023-05-15T14:04:54;11.70;99.90
46319;DHT22;32042;50.916;2.926;2023-05-15T14:07:24;11.60;99.90
46319;DHT22;32042;50.916;2.926;2023-05-15T14:09:50;11.70;99.90
46319;DHT22;32042;50.916;2.926;2023-05-15T14:12:16;11.70;99.90
46319;DHT22;32042;50.916;2.926;2023-05-15T14:14:43;11.80;99.90
46319;DHT22;32042;50.916;2.926;2023-05-15T14:17:09;11.90;99.90
46319;DHT22;32042;50.916;2.926;2023-05-15T14:19:35;11.90;99.90
46319;DHT22;32042;50.916;2.926;2023-05-15T14:22:01;12.00;99.90
46319;DHT22;32042;50.916;2.926;2023-05-15T14:24:26;11.90;99.90
46319;DHT22;32042;50.916;2.926;2023-05-15T14:26:52;12.00;99.90
46319;DHT22;32042;50.916;2.926;2023-05-15T14:29:18;12.00;99.90
46319;DHT22;32042;50.916;2.926;2023-05-15T14:31:43;11.90;99.90
46319;DHT22;32042;50.916;2.926;2023-05-15T14:34:09;11.90;99.90
46319;DHT22;32042;50.916;2.926;2023-05-15T14:36:35;11.90;99.90
46319;DHT22;32042;50.916;2.926;2023-05-15T14:39:01;11.90;99.90
46319;DHT22;32042;50.916;2.926;2023-05-15T14:41:27;12.00;99.90
46319;DHT22;32042;50.916;2.926;2023-05-15T14:43:53;12.10;99.90
46319;DHT22;32042;50.916;2.926;2023-05-15T14:46:22;12.10;99.90
46319;DHT22;32042;50.916;2.926;2023-05-15T14:48:47;12.30;99.90
46319;DHT22;32042;50.916;2.926;2023-05-15T14:51:13;12.40;99.90
46319;DHT22;32042;50.916;2.926;2023-05-15T14:53:39;12.40;99.90
46319;DHT22;32042;50.916;2.926;2023-05-15T14:56:05;12.40;99.90
46319;DHT22;32042;50.916;2.926;2023-05-15T14:58:31;12.50;99.90
46319;DHT22;32042;50.916;2.926;2023-05-15T15:00:56;12.50;99.90
46319;DHT22;32042;50.916;2.926;2023-05-15T15:03:22;12.60;99.90
46319;DHT22;32042;50.916;2.926;2023-05-15T15:05:49;12.50;99.90
46319;DHT22;32042;50.916;2.926;2023-05-15T15:08:16;12.50;99.90
46319;DHT22;32042;50.916;2.926;2023-05-15T15:10:42;12.40;99.90
46319;DHT22;32042;50.916;2.926;2023-05-15T15:13:11;12.40;99.90
46319;DHT22;32042;50.916;2.926;2023-05-15T15:15:39;12.40;99.90
46319;DHT22;32042;50.916;2.926;2023-05-15T15:18:05;12.40;99.90
46319;DHT22;32042;50.916;2.926;2023-05-15T15:20:32;12.40;99.90
46319;DHT22;32042;50.916;2.926;2023-05-15T20:33:05;9.70;99.90
46319;DHT22;32042;50.916;2.926;2023-05-15T20:35:30;9.50;99.90
46319;DHT22;32042;50.916;2.926;2023-05-15T20:37:56;9.50;99.90
46319;DHT22;32042;50.916;2.926;2023-05-15T20:40:25;9.40;99.90
46319;DHT22;32042;50.916;2.926;2023-05-15T20:42:51;9.40;99.90
46319;DHT22;32042;50.916;2.926;2023-05-15T20:45:17;9.40;99.90
46319;DHT22;32042;50.916;2.926;2023-05-15T20:47:43;9.30;99.90
46319;DHT22;32042;50.916;2.926;2023-05-15T20:50:10;9.30;99.90
46319;DHT22;32042;50.916;2.926;2023-05-15T20:52:36;9.30;99.90
46319;DHT22;32042;50.916;2.926;2023-05-15T20:55:03;9.30;99.90
46319;DHT22;32042;50.916;2.926;2023-05-15T20:57:29;9.30;99.90
46319;DHT22;32042;50.916;2.926;2023-05-15T20:59:55;9.30;99.90
46319;DHT22;32042;50.916;2.926;2023-05-15T21:02:21;9.20;99.90